East Fork, Illinois
Current Conditions -  °F | °C
As of 6:15 AM on Sunday 25 Jan 2015 (Local Time) from K3LF Reporting Station
Light Rain Light Rain  
Wind Chill: 37°   Ceiling: 3400
Heat Index: 37°   Visibility: 7mi
Dew Point: 36°   Wind: 3mph
Humidity: 93%   Direction: 180°S
Pressure: 29.59"   Gusts: NA
Location:  39.1049°N, 89.4043°W
Report Text: K3LF 251215Z AUTO 18003KT 7SM -RA SCT024 BKN034 OVC040 03/02 A2959 RMK AO2 P0001 T00300020
Loading
Personal Weather Stations






























Interactive Weather Map New forecast layout! Learn more

10-Day Weather Forecast

Advertisements
Track Severe Weather on mobile